createdAt,value
2023-11-13T00:00:22.379Z,1005.80
2023-11-13T00:01:22.457Z,1005.83
2023-11-13T00:02:22.358Z,1005.82
2023-11-13T00:03:22.431Z,1005.77
2023-11-13T00:04:22.356Z,1005.74
2023-11-13T00:05:22.323Z,1005.74
2023-11-13T00:06:22.284Z,1005.71
2023-11-13T00:07:22.394Z,1005.65
2023-11-13T00:08:22.278Z,1005.61
2023-11-13T00:09:22.243Z,1005.61
2023-11-13T00:10:22.352Z,1005.59
2023-11-13T00:11:22.215Z,1005.58
2023-11-13T00:12:22.305Z,1005.60
2023-11-13T00:13:22.324Z,1005.60
2023-11-13T00:14:22.177Z,1005.59
2023-11-13T00:15:22.194Z,1005.60
2023-11-13T00:16:22.217Z,1005.56
2023-11-13T00:17:22.179Z,1005.58
2023-11-13T00:18:22.119Z,1005.64
2023-11-13T00:19:22.290Z,1005.66
2023-11-13T00:20:22.102Z,1005.70
2023-11-13T00:21:22.112Z,1005.60
2023-11-13T00:22:22.127Z,1005.65
2023-11-13T00:23:22.062Z,1005.58
2023-11-13T00:24:22.038Z,1005.57
2023-11-13T00:25:22.186Z,1005.51
2023-11-13T00:26:22.021Z,1005.52
2023-11-13T00:27:22.007Z,1005.54
2023-11-13T00:28:22.083Z,1005.58
2023-11-13T00:29:21.998Z,1005.61
2023-11-13T00:30:22.001Z,1005.59
2023-11-13T00:31:22.148Z,1005.62
2023-11-13T00:32:21.965Z,1005.60
2023-11-13T00:33:21.924Z,1005.65
2023-11-13T00:34:22.017Z,1005.66
2023-11-13T00:35:21.906Z,1005.68
2023-11-13T00:36:21.908Z,1005.57
2023-11-13T00:37:21.991Z,1005.57
2023-11-13T00:38:21.907Z,1005.61
2023-11-13T00:39:21.875Z,1005.58
2023-11-13T00:40:21.846Z,1005.59
2023-11-13T00:41:21.819Z,1005.60
2023-11-13T00:42:21.837Z,1005.59
2023-11-13T00:43:21.874Z,1005.63
2023-11-13T00:44:21.781Z,1005.61
2023-11-13T00:45:21.835Z,1005.64
2023-11-13T00:46:21.851Z,1005.64
2023-11-13T00:47:21.745Z,1005.67
2023-11-13T00:48:21.736Z,1005.73
2023-11-13T00:49:21.833Z,1005.78
2023-11-13T00:50:21.713Z,1005.76
2023-11-13T00:51:21.693Z,1005.74
2023-11-13T00:52:21.755Z,1005.68
2023-11-13T00:53:21.664Z,1005.66
2023-11-13T00:54:21.674Z,1005.67
2023-11-13T00:55:21.877Z,1005.60
2023-11-13T00:56:21.647Z,1005.54
2023-11-13T00:57:21.641Z,1005.56
2023-11-13T00:58:21.631Z,1005.56
2023-11-13T00:59:21.612Z,1005.62
2023-11-13T01:00:21.579Z,1005.58
2023-11-13T01:01:21.742Z,1005.66
2023-11-13T01:02:21.550Z,1005.66
2023-11-13T01:03:21.606Z,1005.65
2023-11-13T01:04:21.566Z,1005.66
2023-11-13T01:05:21.518Z,1005.65
2023-11-13T01:06:21.523Z,1005.60
2023-11-13T01:07:21.614Z,1005.60
2023-11-13T01:08:21.467Z,1005.53
2023-11-13T01:09:21.491Z,1005.51
2023-11-13T01:10:21.508Z,1005.51
2023-11-13T01:11:21.444Z,1005.43
2023-11-13T01:12:21.449Z,1005.45
2023-11-13T01:13:21.476Z,1005.43
2023-11-13T01:14:21.526Z,1005.40
2023-11-13T01:15:21.498Z,1005.40
2023-11-13T01:16:21.540Z,1005.41
2023-11-13T01:17:21.434Z,1005.31
2023-11-13T01:18:21.371Z,1005.39
2023-11-13T01:19:21.448Z,1005.39
2023-11-13T01:20:21.390Z,1005.50
2023-11-13T01:21:21.344Z,1005.50
2023-11-13T01:22:21.392Z,1005.50
2023-11-13T01:23:21.378Z,1005.53
2023-11-13T01:24:21.334Z,1005.54
2023-11-13T01:25:21.354Z,1005.55
2023-11-13T01:26:21.264Z,1005.55
2023-11-13T01:27:21.248Z,1005.50
2023-11-13T01:28:21.260Z,1005.53
2023-11-13T01:29:21.253Z,1005.60
2023-11-13T01:30:21.191Z,1005.56
2023-11-13T01:31:21.244Z,1005.66
2023-11-13T01:32:21.178Z,1005.62
2023-11-13T01:33:21.183Z,1005.60
2023-11-13T01:34:21.289Z,1005.58
2023-11-13T01:35:21.124Z,1005.55
2023-11-13T01:36:21.128Z,1005.53
2023-11-13T01:37:21.319Z,1005.48
2023-11-13T01:38:21.086Z,1005.48
2023-11-13T01:39:21.094Z,1005.44
2023-11-13T01:40:21.095Z,1005.45
2023-11-13T01:41:21.074Z,1005.39
2023-11-13T01:42:21.034Z,1005.39
2023-11-13T01:43:21.112Z,1005.39
2023-11-13T01:44:21.026Z,1005.42
2023-11-13T01:45:20.995Z,1005.38
2023-11-13T01:46:21.035Z,1005.40
2023-11-13T01:47:21.004Z,1005.34
2023-11-13T01:48:21.031Z,1005.34
2023-11-13T01:49:21.189Z,1005.38
2023-11-13T01:50:20.932Z,1005.38
2023-11-13T01:51:20.934Z,1005.39
2023-11-13T01:52:20.948Z,1005.38
2023-11-13T01:53:20.879Z,1005.39
2023-11-13T01:54:20.901Z,1005.36
2023-11-13T01:55:20.922Z,1005.38
2023-11-13T01:56:20.837Z,1005.41
2023-11-13T01:57:20.831Z,1005.33
2023-11-13T01:58:20.881Z,1005.33
2023-11-13T01:59:20.840Z,1005.26
2023-11-13T02:00:20.792Z,1005.22
2023-11-13T02:01:20.977Z,1005.19
2023-11-13T02:02:20.788Z,1005.15
2023-11-13T02:03:20.906Z,1005.11
2023-11-13T02:04:20.765Z,1005.10
2023-11-13T02:05:20.727Z,1005.15
2023-11-13T02:06:20.717Z,1005.11
2023-11-13T02:07:20.790Z,1005.14
2023-11-13T02:08:20.862Z,1005.08
2023-11-13T02:09:20.672Z,1005.02
2023-11-13T02:10:20.689Z,1005.07
2023-11-13T02:11:20.674Z,1005.06
2023-11-13T02:12:20.631Z,1005.08
2023-11-13T02:13:20.686Z,1005.12
2023-11-13T02:14:20.632Z,1005.09
2023-11-13T02:15:20.592Z,1005.10
2023-11-13T02:16:20.672Z,1005.07
2023-11-13T02:17:20.597Z,1005.02
2023-11-13T02:18:20.561Z,1005.03
2023-11-13T02:19:20.709Z,1004.99
2023-11-13T02:20:20.551Z,1004.96
2023-11-13T02:21:20.547Z,1004.97
2023-11-13T02:22:20.596Z,1005.05
2023-11-13T02:23:20.495Z,1005.02
2023-11-13T02:24:20.473Z,1004.99
2023-11-13T02:25:20.578Z,1005.00
2023-11-13T02:26:20.487Z,1005.01
2023-11-13T02:27:20.470Z,1005.03
2023-11-13T02:28:20.467Z,1005.05
2023-11-13T02:29:20.442Z,1005.07
2023-11-13T02:30:20.396Z,1005.02
2023-11-13T02:31:20.545Z,1005.03
2023-11-13T02:32:20.409Z,1004.97
2023-11-13T02:33:20.390Z,1004.91
2023-11-13T02:34:20.418Z,1004.90
2023-11-13T02:35:20.327Z,1004.86
2023-11-13T02:36:20.317Z,1004.83
2023-11-13T02:37:20.416Z,1004.82
2023-11-13T02:38:20.313Z,1004.79
2023-11-13T02:39:20.309Z,1004.79
2023-11-13T02:40:20.430Z,1004.80
2023-11-13T02:41:20.283Z,1004.79
2023-11-13T02:42:20.237Z,1004.84
2023-11-13T02:43:20.324Z,1004.85
2023-11-13T02:44:20.211Z,1004.91
2023-11-13T02:45:20.222Z,1004.97
2023-11-13T02:46:20.256Z,1005.03
2023-11-13T02:47:20.205Z,1005.07
2023-11-13T02:48:20.170Z,1005.11
2023-11-13T02:49:20.249Z,1005.07
2023-11-13T02:50:20.154Z,1005.14
2023-11-13T02:51:20.123Z,1005.18
2023-11-13T02:52:20.180Z,1005.14
2023-11-13T02:53:20.094Z,1005.20
2023-11-13T02:54:20.109Z,1005.21
2023-11-13T02:55:20.206Z,1005.18
2023-11-13T02:56:20.051Z,1005.21
2023-11-13T02:57:20.073Z,1005.17
2023-11-13T02:58:20.190Z,1005.16
2023-11-13T02:59:20.039Z,1005.15
2023-11-13T03:00:20.025Z,1005.32
2023-11-13T03:01:20.095Z,1005.30
2023-11-13T03:02:19.998Z,1005.25
2023-11-13T03:03:20.086Z,1005.24
2023-11-13T03:04:19.985Z,1005.22
2023-11-13T03:05:19.940Z,1005.23
2023-11-13T03:06:19.953Z,1005.20
2023-11-13T03:07:20.026Z,1005.14
2023-11-13T03:08:19.906Z,1005.16
2023-11-13T03:09:19.911Z,1005.17
2023-11-13T03:10:19.894Z,1005.11
2023-11-13T03:11:19.890Z,1005.08
2023-11-13T03:12:19.880Z,1005.03
2023-11-13T03:13:19.901Z,1005.00
2023-11-13T03:14:19.847Z,1005.02
2023-11-13T03:15:19.839Z,1005.01
2023-11-13T03:16:19.842Z,1005.02
2023-11-13T03:17:19.804Z,1005.03
2023-11-13T03:18:19.766Z,1005.04
2023-11-13T03:19:19.824Z,1005.00
2023-11-13T03:20:19.764Z,1004.96
2023-11-13T03:21:19.759Z,1005.05
2023-11-13T03:22:19.827Z,1005.04
2023-11-13T03:23:19.709Z,1005.08
2023-11-13T03:24:19.709Z,1005.03
2023-11-13T03:25:19.751Z,1005.00
2023-11-13T03:26:19.684Z,1005.05
2023-11-13T03:27:19.676Z,1004.96
2023-11-13T03:28:19.671Z,1004.98
2023-11-13T03:29:19.644Z,1004.97
2023-11-13T03:30:19.611Z,1004.94
2023-11-13T03:31:19.732Z,1004.89
2023-11-13T03:32:19.679Z,1004.84
2023-11-13T03:33:21.928Z,1004.89
2023-11-13T03:34:19.605Z,1004.81
2023-11-13T03:35:19.565Z,1004.81
2023-11-13T03:36:19.532Z,1004.81
2023-11-13T03:37:19.578Z,1004.79
2023-11-13T03:38:19.612Z,1004.78
2023-11-13T03:39:19.510Z,1004.74
2023-11-13T03:40:19.549Z,1004.77
2023-11-13T03:41:19.485Z,1004.77
2023-11-13T03:42:19.485Z,1004.77
2023-11-13T03:43:19.525Z,1004.77
2023-11-13T03:44:19.420Z,1004.72
2023-11-13T03:45:19.410Z,1004.74
2023-11-13T03:46:19.456Z,1004.70
2023-11-13T03:47:19.420Z,1004.66
2023-11-13T03:48:19.407Z,1004.72
2023-11-13T03:49:19.708Z,1004.73
2023-11-13T03:50:19.335Z,1004.78
2023-11-13T03:51:20.500Z,1004.81
2023-11-13T03:52:19.383Z,1004.79
2023-11-13T03:53:19.303Z,1004.77
2023-11-13T03:54:19.310Z,1004.76
2023-11-13T03:55:19.391Z,1004.76
2023-11-13T03:56:19.289Z,1004.80
2023-11-13T03:57:19.271Z,1004.86
2023-11-13T03:58:19.249Z,1004.88
2023-11-13T03:59:19.253Z,1004.90
2023-11-13T04:00:19.211Z,1004.90
2023-11-13T04:01:19.339Z,1004.96
2023-11-13T04:02:19.207Z,1004.93
2023-11-13T04:03:19.285Z,1004.92
2023-11-13T04:04:19.252Z,1004.90
2023-11-13T04:05:19.180Z,1004.91
2023-11-13T04:06:19.158Z,1004.82
2023-11-13T04:07:19.178Z,1004.79
2023-11-13T04:08:19.101Z,1004.78
2023-11-13T04:09:19.116Z,1004.77
2023-11-13T04:10:19.205Z,1004.79
2023-11-13T04:11:19.088Z,1004.80
2023-11-13T04:12:19.077Z,1004.81
2023-11-13T04:13:19.142Z,1004.85
2023-11-13T04:14:19.044Z,1004.87
2023-11-13T04:15:19.036Z,1004.81
2023-11-13T04:16:19.102Z,1004.83
2023-11-13T04:17:19.047Z,1004.78
2023-11-13T04:18:18.971Z,1004.82
2023-11-13T04:19:19.041Z,1004.80
2023-11-13T04:20:18.939Z,1004.76
2023-11-13T04:21:18.956Z,1004.71
2023-11-13T04:22:18.999Z,1004.67
2023-11-13T04:23:18.901Z,1004.67
2023-11-13T04:24:18.913Z,1004.66
2023-11-13T04:25:18.967Z,1004.69
2023-11-13T04:26:18.889Z,1004.70
2023-11-13T04:27:18.879Z,1004.68
2023-11-13T04:28:18.941Z,1004.67
2023-11-13T04:29:18.870Z,1004.68
2023-11-13T04:30:18.811Z,1004.69
2023-11-13T04:31:18.855Z,1004.66
2023-11-13T04:32:18.841Z,1004.68
2023-11-13T04:33:18.801Z,1004.65
2023-11-13T04:34:18.848Z,1004.67
2023-11-13T04:35:18.781Z,1004.69
2023-11-13T04:36:18.802Z,1004.71
2023-11-13T04:37:18.813Z,1004.73
2023-11-13T04:38:18.709Z,1004.75
2023-11-13T04:39:18.695Z,1004.77
2023-11-13T04:40:18.748Z,1004.80
2023-11-13T04:41:18.675Z,1004.80
2023-11-13T04:42:18.690Z,1004.80
2023-11-13T04:43:18.720Z,1004.79
2023-11-13T04:44:18.659Z,1004.80
2023-11-13T04:45:18.644Z,1004.80
2023-11-13T04:46:18.708Z,1004.76
2023-11-13T04:47:18.620Z,1004.75
2023-11-13T04:48:18.568Z,1004.77
2023-11-13T04:49:18.661Z,1004.80
2023-11-13T04:50:18.546Z,1004.79
2023-11-13T04:51:18.539Z,1004.75
2023-11-13T04:52:18.594Z,1004.73
2023-11-13T04:53:18.504Z,1004.77
2023-11-13T04:54:18.528Z,1004.78
2023-11-13T04:55:18.711Z,1004.82
2023-11-13T04:56:18.804Z,1004.77
2023-11-13T04:57:18.478Z,1004.72
2023-11-13T04:58:21.782Z,1004.74
2023-11-13T04:59:18.564Z,1004.69
2023-11-13T05:00:18.548Z,1004.65
2023-11-13T05:01:18.753Z,1004.70
2023-11-13T05:02:18.416Z,1004.65
2023-11-13T05:03:18.376Z,1004.61
2023-11-13T05:04:18.443Z,1004.64
2023-11-13T05:05:18.355Z,1004.58
2023-11-13T05:06:18.364Z,1004.63
2023-11-13T05:07:18.542Z,1004.61
2023-11-13T05:08:18.302Z,1004.63
2023-11-13T05:09:18.346Z,1004.62
2023-11-13T05:10:18.318Z,1004.60
2023-11-13T05:11:18.296Z,1004.59
2023-11-13T05:12:18.275Z,1004.61
2023-11-13T05:13:18.318Z,1004.64
2023-11-13T05:14:18.266Z,1004.58
2023-11-13T05:15:18.226Z,1004.55
2023-11-13T05:16:18.266Z,1004.54
2023-11-13T05:17:18.218Z,1004.51
2023-11-13T05:18:18.209Z,1004.52
2023-11-13T05:19:18.253Z,1004.54
2023-11-13T05:20:18.148Z,1004.54
2023-11-13T05:21:18.169Z,1004.51
2023-11-13T05:22:18.157Z,1004.48
2023-11-13T05:23:18.116Z,1004.42
2023-11-13T05:24:18.132Z,1004.46
2023-11-13T05:25:18.193Z,1004.42
2023-11-13T05:26:18.097Z,1004.40
2023-11-13T05:27:18.098Z,1004.39
2023-11-13T05:28:18.090Z,1004.37
2023-11-13T05:29:18.062Z,1004.30
2023-11-13T05:30:18.022Z,1004.33
2023-11-13T05:31:18.202Z,1004.30
2023-11-13T05:32:18.051Z,1004.29
2023-11-13T05:33:18.022Z,1004.26
2023-11-13T05:34:18.054Z,1004.26
2023-11-13T05:35:17.986Z,1004.21
2023-11-13T05:36:17.959Z,1004.21
2023-11-13T05:37:18.051Z,1004.16
2023-11-13T05:38:17.911Z,1004.18
2023-11-13T05:39:17.935Z,1004.15
2023-11-13T05:40:17.907Z,1004.19
2023-11-13T05:41:17.873Z,1004.11
2023-11-13T05:42:17.912Z,1004.14
2023-11-13T05:43:18.003Z,1004.15
2023-11-13T05:44:17.915Z,1004.11
2023-11-13T05:45:17.979Z,1004.13
2023-11-13T05:46:17.910Z,1004.16
2023-11-13T05:47:17.898Z,1004.14
2023-11-13T05:48:17.777Z,1004.10
2023-11-13T05:49:17.836Z,1004.13
2023-11-13T05:50:17.755Z,1004.14
2023-11-13T05:51:17.741Z,1004.09
2023-11-13T05:52:17.818Z,1004.09
2023-11-13T05:53:17.718Z,1004.07
2023-11-13T05:54:17.726Z,1004.04
2023-11-13T05:55:17.852Z,1004.05
2023-11-13T05:56:17.700Z,1004.04
2023-11-13T05:57:17.690Z,1004.06
2023-11-13T05:58:17.674Z,1004.03
2023-11-13T05:59:17.665Z,1004.04
2023-11-13T06:00:17.621Z,1003.97
2023-11-13T06:01:17.674Z,1003.93
2023-11-13T06:02:17.673Z,1003.89
2023-11-13T06:03:17.626Z,1003.86
2023-11-13T06:04:17.841Z,1003.82
2023-11-13T06:05:17.592Z,1003.82
2023-11-13T06:06:19.101Z,1003.83
2023-11-13T06:07:17.708Z,1003.81
2023-11-13T06:08:17.562Z,1003.75
2023-11-13T06:09:17.535Z,1003.76
2023-11-13T06:10:17.515Z,1003.79
2023-11-13T06:11:17.495Z,1003.69
2023-11-13T06:12:17.502Z,1003.73
2023-11-13T06:13:17.544Z,1003.78
2023-11-13T06:14:17.476Z,1003.71
2023-11-13T06:15:17.473Z,1003.73
2023-11-13T06:16:17.543Z,1003.72
2023-11-13T06:17:17.466Z,1003.73
2023-11-13T06:18:17.483Z,1003.71
2023-11-13T06:19:17.465Z,1003.73
2023-11-13T06:20:17.363Z,1003.68
2023-11-13T06:21:17.461Z,1003.65
2023-11-13T06:22:17.395Z,1003.63
2023-11-13T06:23:17.326Z,1003.61
2023-11-13T06:24:17.308Z,1003.53
2023-11-13T06:25:17.411Z,1003.53
2023-11-13T06:26:17.285Z,1003.52
2023-11-13T06:27:17.280Z,1003.50
2023-11-13T06:28:17.291Z,1003.45
2023-11-13T06:29:17.274Z,1003.50
2023-11-13T06:30:17.263Z,1003.49
2023-11-13T06:31:18.073Z,1003.49
2023-11-13T06:32:17.315Z,1003.52
2023-11-13T06:33:17.201Z,1003.51
2023-11-13T06:34:17.241Z,1003.50
2023-11-13T06:35:17.222Z,1003.46
2023-11-13T06:36:17.162Z,1003.50
2023-11-13T06:37:17.214Z,1003.47
2023-11-13T06:38:17.141Z,1003.51
2023-11-13T06:39:17.151Z,1003.55
2023-11-13T06:40:17.262Z,1003.53
2023-11-13T06:41:17.094Z,1003.54
2023-11-13T06:42:17.104Z,1003.49
2023-11-13T06:43:17.135Z,1003.50
2023-11-13T06:44:17.053Z,1003.42
2023-11-13T06:45:17.103Z,1003.42
2023-11-13T06:46:17.124Z,1003.36
2023-11-13T06:47:17.086Z,1003.33
2023-11-13T06:48:17.005Z,1003.28
2023-11-13T06:49:17.075Z,1003.36
2023-11-13T06:50:16.980Z,1003.36
2023-11-13T06:51:17.002Z,1003.40
2023-11-13T06:52:17.058Z,1003.38
2023-11-13T06:53:16.942Z,1003.34
2023-11-13T06:54:16.955Z,1003.35
2023-11-13T06:55:17.034Z,1003.33
2023-11-13T06:56:16.903Z,1003.31
2023-11-13T06:57:16.916Z,1003.34
2023-11-13T06:58:17.037Z,1003.35
2023-11-13T06:59:16.859Z,1003.34
2023-11-13T07:00:16.869Z,1003.33
2023-11-13T07:01:16.924Z,1003.35
2023-11-13T07:02:16.874Z,1003.37
2023-11-13T07:03:16.849Z,1003.34
2023-11-13T07:04:16.924Z,1003.35
2023-11-13T07:05:16.933Z,1003.36
2023-11-13T07:06:16.774Z,1003.37
2023-11-13T07:07:16.879Z,1003.34
2023-11-13T07:08:16.774Z,1003.43
2023-11-13T07:09:16.767Z,1003.42
2023-11-13T07:10:16.761Z,1003.40
2023-11-13T07:11:16.735Z,1003.48
2023-11-13T07:12:16.720Z,1003.46
2023-11-13T07:13:16.746Z,1003.47
2023-11-13T07:14:16.694Z,1003.51
2023-11-13T07:15:16.664Z,1003.51
2023-11-13T07:16:16.759Z,1003.48
2023-11-13T07:17:16.671Z,1003.46
2023-11-13T07:18:19.286Z,1003.51
2023-11-13T07:19:16.749Z,1003.46
2023-11-13T07:20:16.598Z,1003.48
2023-11-13T07:21:16.607Z,1003.51
2023-11-13T07:22:16.598Z,1003.53
2023-11-13T07:23:16.560Z,1003.51
2023-11-13T07:24:16.562Z,1003.49
2023-11-13T07:25:16.565Z,1003.49
2023-11-13T07:26:16.538Z,1003.52
2023-11-13T07:27:16.543Z,1003.53
2023-11-13T07:28:16.989Z,1003.50
2023-11-13T07:29:16.508Z,1003.50
2023-11-13T07:30:16.461Z,1003.45
2023-11-13T07:31:16.539Z,1003.40
2023-11-13T07:32:16.526Z,1003.43
2023-11-13T07:33:16.507Z,1003.46
2023-11-13T07:34:16.467Z,1003.41
2023-11-13T07:35:16.417Z,1003.42
2023-11-13T07:36:16.396Z,1003.47
2023-11-13T07:37:16.466Z,1003.46
2023-11-13T07:38:16.355Z,1003.42
2023-11-13T07:39:16.373Z,1003.44
2023-11-13T07:40:16.989Z,1003.45
2023-11-13T07:41:16.326Z,1003.45
2023-11-13T07:42:16.332Z,1003.44
2023-11-13T07:43:16.374Z,1003.42
2023-11-13T07:44:16.300Z,1003.36
2023-11-13T07:45:16.273Z,1003.31
2023-11-13T07:46:16.341Z,1003.23
2023-11-13T07:47:16.266Z,1003.21
2023-11-13T07:48:16.252Z,1003.13
2023-11-13T07:49:16.337Z,1003.16
2023-11-13T07:50:16.197Z,1003.18
2023-11-13T07:51:16.213Z,1003.11
2023-11-13T07:52:16.243Z,1003.06
2023-11-13T07:53:16.201Z,1002.98
2023-11-13T07:54:16.175Z,1003.01
2023-11-13T07:55:16.743Z,1002.92
2023-11-13T07:56:16.148Z,1002.92
2023-11-13T07:57:16.107Z,1002.92
2023-11-13T07:58:16.169Z,1002.91
2023-11-13T07:59:16.118Z,1002.97
2023-11-13T08:00:16.152Z,1002.88
2023-11-13T08:01:16.180Z,1002.88
2023-11-13T08:02:16.082Z,1002.84
2023-11-13T08:03:16.087Z,1002.89
2023-11-13T08:04:16.089Z,1002.89
2023-11-13T08:05:17.316Z,1002.86
2023-11-13T08:06:15.989Z,1002.82
2023-11-13T08:07:23.541Z,1002.71
2023-11-13T08:08:16.973Z,1002.71
2023-11-13T08:09:16.033Z,1002.66
2023-11-13T08:10:16.015Z,1002.65
2023-11-13T08:11:15.931Z,1002.63
2023-11-13T08:12:15.963Z,1002.62
2023-11-13T08:13:16.008Z,1002.61
2023-11-13T08:14:15.918Z,1002.61
2023-11-13T08:15:15.911Z,1002.60
2023-11-13T08:16:15.939Z,1002.55
2023-11-13T08:17:15.895Z,1002.56
2023-11-13T08:18:16.106Z,1002.53
2023-11-13T08:19:15.910Z,1002.53
2023-11-13T08:20:15.898Z,1002.50
2023-11-13T08:21:15.804Z,1002.49
2023-11-13T08:22:15.852Z,1002.49
2023-11-13T08:23:15.824Z,1002.44
2023-11-13T08:24:15.783Z,1002.44
2023-11-13T08:25:15.916Z,1002.42
2023-11-13T08:26:15.758Z,1002.40
2023-11-13T08:27:15.755Z,1002.38
2023-11-13T08:28:16.062Z,1002.35
2023-11-13T08:29:15.715Z,1002.35
2023-11-13T08:30:16.063Z,1002.29
2023-11-13T08:31:15.795Z,1002.22
2023-11-13T08:32:15.736Z,1002.21
2023-11-13T08:33:15.708Z,1002.23
2023-11-13T08:34:15.705Z,1002.20
2023-11-13T08:35:15.626Z,1002.16
2023-11-13T08:36:15.598Z,1002.16
2023-11-13T08:37:15.651Z,1002.09
2023-11-13T08:38:15.572Z,1002.07
2023-11-13T08:39:15.587Z,1002.06
2023-11-13T08:40:15.656Z,1002.01
2023-11-13T08:41:15.532Z,1001.97
2023-11-13T08:42:15.546Z,1001.92
2023-11-13T08:43:15.611Z,1001.89
2023-11-13T08:44:15.517Z,1001.89
2023-11-13T08:45:15.495Z,1001.89
2023-11-13T08:46:15.549Z,1001.90
2023-11-13T08:47:15.564Z,1001.87
2023-11-13T08:48:15.490Z,1001.78
2023-11-13T08:49:15.806Z,1001.74
2023-11-13T08:50:15.419Z,1001.73
2023-11-13T08:51:15.434Z,1001.69
2023-11-13T08:52:15.488Z,1001.69
2023-11-13T08:53:15.403Z,1001.65
2023-11-13T08:54:15.394Z,1001.60
2023-11-13T08:55:15.416Z,1001.72
2023-11-13T08:56:15.620Z,1001.69
2023-11-13T08:57:15.358Z,1001.67
2023-11-13T08:58:15.323Z,1001.61
2023-11-13T08:59:15.294Z,1001.67
2023-11-13T09:00:15.345Z,1001.62
2023-11-13T09:01:15.358Z,1001.58
2023-11-13T09:02:15.383Z,1001.58
2023-11-13T09:03:15.402Z,1001.53
2023-11-13T09:04:15.363Z,1001.53
2023-11-13T09:05:15.272Z,1001.47
2023-11-13T09:06:15.261Z,1001.45
2023-11-13T09:07:15.231Z,1001.38
2023-11-13T09:08:15.180Z,1001.39
2023-11-13T09:09:15.164Z,1001.40
2023-11-13T09:10:15.207Z,1001.40
2023-11-13T09:11:15.160Z,1001.41
2023-11-13T09:12:18.014Z,1001.46
2023-11-13T09:13:15.198Z,1001.43
2023-11-13T09:14:15.116Z,1001.40
2023-11-13T09:15:15.105Z,1001.46
2023-11-13T09:16:15.118Z,1001.42
2023-11-13T09:17:15.107Z,1001.44
2023-11-13T09:18:15.050Z,1001.44
2023-11-13T09:19:15.081Z,1001.48
2023-11-13T09:20:15.005Z,1001.46
2023-11-13T09:21:15.029Z,1001.44
2023-11-13T09:22:15.018Z,1001.47
2023-11-13T09:23:14.967Z,1001.47
2023-11-13T09:24:14.951Z,1001.47
2023-11-13T09:25:15.006Z,1001.57
2023-11-13T09:26:14.963Z,1001.48
2023-11-13T09:27:14.946Z,1001.55
2023-11-13T09:28:14.966Z,1001.56
2023-11-13T09:29:14.917Z,1001.51
2023-11-13T09:30:15.009Z,1001.53
2023-11-13T09:31:14.964Z,1001.41
2023-11-13T09:32:14.879Z,1001.44
2023-11-13T09:33:14.930Z,1001.35
2023-11-13T09:34:14.891Z,1001.38
2023-11-13T09:35:14.824Z,1001.30
2023-11-13T09:36:14.829Z,1001.31
2023-11-13T09:37:14.905Z,1001.32
2023-11-13T09:38:14.789Z,1001.28
2023-11-13T09:39:14.767Z,1001.26
2023-11-13T09:40:14.842Z,1001.26
2023-11-13T09:41:14.742Z,1001.26
2023-11-13T09:42:14.772Z,1001.27
2023-11-13T09:43:14.775Z,1001.20
2023-11-13T09:44:14.754Z,1001.21
2023-11-13T09:45:14.704Z,1001.21
2023-11-13T09:46:14.794Z,1001.17
2023-11-13T09:47:14.693Z,1001.18
2023-11-13T09:48:14.705Z,1001.14
2023-11-13T09:49:14.757Z,1001.11
2023-11-13T09:50:14.653Z,1001.10
2023-11-13T09:51:27.200Z,1001.12
2023-11-13T09:52:15.640Z,1001.19
2023-11-13T09:53:14.612Z,1001.16
2023-11-13T09:54:14.607Z,1001.15
2023-11-13T09:55:14.729Z,1001.16
2023-11-13T09:56:14.565Z,1001.15
2023-11-13T09:57:14.584Z,1001.08
2023-11-13T09:58:14.580Z,1001.12
2023-11-13T09:59:14.531Z,1001.12
2023-11-13T10:00:14.526Z,1001.14
2023-11-13T10:01:14.624Z,1001.10
2023-11-13T10:02:14.563Z,1001.08
2023-11-13T10:03:14.483Z,1001.06
2023-11-13T10:04:14.573Z,1001.08
2023-11-13T10:05:14.509Z,1001.05
2023-11-13T10:06:14.406Z,1001.06
2023-11-13T10:07:14.460Z,1001.02
2023-11-13T10:08:14.394Z,1000.98
2023-11-13T10:09:14.369Z,1000.99
2023-11-13T10:10:14.443Z,1000.99
2023-11-13T10:11:14.371Z,1000.99
2023-11-13T10:12:14.335Z,1000.95
2023-11-13T10:13:14.709Z,1000.96
2023-11-13T10:14:14.420Z,1000.96
2023-11-13T10:15:14.319Z,1000.95
2023-11-13T10:16:14.335Z,1000.95
2023-11-13T10:17:14.430Z,1000.92
2023-11-13T10:18:15.073Z,1000.93
2023-11-13T10:19:14.330Z,1000.89
2023-11-13T10:20:14.223Z,1000.93
2023-11-13T10:21:14.217Z,1000.90
2023-11-13T10:22:14.220Z,1000.87
2023-11-13T10:23:14.201Z,1000.83
2023-11-13T10:24:14.174Z,1000.80
2023-11-13T10:25:14.252Z,1000.72
2023-11-13T10:26:14.152Z,1000.74
2023-11-13T10:27:14.459Z,1000.75
2023-11-13T10:28:14.145Z,1000.70
2023-11-13T10:29:14.106Z,1000.72
2023-11-13T10:30:14.133Z,1000.64
2023-11-13T10:31:14.722Z,1000.68
2023-11-13T10:32:14.078Z,1000.68
2023-11-13T10:33:14.144Z,1000.61
2023-11-13T10:34:14.080Z,1000.58
2023-11-13T10:35:14.028Z,1000.44
2023-11-13T10:36:14.026Z,1000.45
2023-11-13T10:37:14.101Z,1000.38
2023-11-13T10:38:13.988Z,1000.38
2023-11-13T10:39:19.185Z,1000.33
2023-11-13T10:40:15.006Z,1000.37
2023-11-13T10:41:14.073Z,1000.33
2023-11-13T10:42:13.939Z,1000.32
2023-11-13T10:43:13.983Z,1000.27
2023-11-13T10:44:13.917Z,1000.25
2023-11-13T10:45:13.927Z,1000.21
2023-11-13T10:46:13.960Z,1000.12
2023-11-13T10:47:13.963Z,1000.12
2023-11-13T10:48:13.916Z,1000.08
2023-11-13T10:49:14.009Z,1000.02
2023-11-13T10:50:13.878Z,1000.00
2023-11-13T10:51:13.845Z,999.85
2023-11-13T10:52:13.828Z,999.83
2023-11-13T10:53:13.800Z,999.84
2023-11-13T10:54:13.781Z,999.82
2023-11-13T10:55:13.845Z,999.76
2023-11-13T10:56:13.755Z,999.78
2023-11-13T10:57:13.735Z,999.79
2023-11-13T10:58:13.745Z,999.79
2023-11-13T10:59:13.736Z,999.82
2023-11-13T11:00:13.866Z,999.85
2023-11-13T11:01:13.857Z,999.83
2023-11-13T11:02:13.758Z,999.81
2023-11-13T11:03:13.784Z,999.76
2023-11-13T11:04:13.718Z,999.79
2023-11-13T11:05:13.652Z,999.73
2023-11-13T11:06:13.616Z,999.71
2023-11-13T11:07:13.652Z,999.65
2023-11-13T11:08:13.613Z,999.63
2023-11-13T11:09:13.576Z,999.60
2023-11-13T11:10:13.733Z,999.55
2023-11-13T11:11:13.577Z,999.50
2023-11-13T11:12:13.571Z,999.40
2023-11-13T11:13:13.579Z,999.36
2023-11-13T11:14:13.513Z,999.34
2023-11-13T11:15:13.550Z,999.32
2023-11-13T11:16:13.585Z,999.24
2023-11-13T11:17:14.351Z,999.15
2023-11-13T11:18:13.552Z,999.16
2023-11-13T11:19:13.548Z,999.21
2023-11-13T11:20:13.461Z,999.12
2023-11-13T11:21:13.442Z,999.14
2023-11-13T11:22:13.462Z,999.07
2023-11-13T11:23:13.415Z,999.07
2023-11-13T11:24:13.499Z,999.04
2023-11-13T11:25:13.444Z,999.04
2023-11-13T11:26:13.377Z,999.00
2023-11-13T11:27:13.337Z,998.92
2023-11-13T11:28:14.453Z,998.91
2023-11-13T11:29:13.377Z,998.87
2023-11-13T11:30:13.308Z,998.88
2023-11-13T11:31:13.379Z,998.85
2023-11-13T11:32:13.300Z,998.80
2023-11-13T11:33:13.373Z,998.75
2023-11-13T11:34:13.269Z,998.75
2023-11-13T11:35:13.257Z,998.77
2023-11-13T11:36:13.249Z,998.67
2023-11-13T11:37:13.237Z,998.70
2023-11-13T11:38:13.187Z,998.69
2023-11-13T11:39:13.189Z,998.63
2023-11-13T11:40:13.189Z,998.66
2023-11-13T11:41:13.146Z,998.62
2023-11-13T11:42:13.165Z,998.59
2023-11-13T11:43:13.323Z,998.54
2023-11-13T11:44:13.133Z,998.53
2023-11-13T11:45:13.124Z,998.54
2023-11-13T11:46:13.131Z,998.53
2023-11-13T11:47:16.051Z,998.52
2023-11-13T11:48:13.126Z,998.48
2023-11-13T11:49:15.657Z,998.41
2023-11-13T11:50:14.081Z,998.36
2023-11-13T11:51:13.046Z,998.30
2023-11-13T11:52:13.450Z,998.27
2023-11-13T11:53:12.989Z,998.19
2023-11-13T11:54:12.998Z,998.10
2023-11-13T11:55:13.057Z,998.09
2023-11-13T11:56:12.987Z,998.01
2023-11-13T11:57:13.315Z,998.00
2023-11-13T11:58:12.962Z,997.98
2023-11-13T11:59:12.925Z,998.00
2023-11-13T12:00:12.914Z,997.96
2023-11-13T12:01:13.059Z,997.96
2023-11-13T12:02:12.944Z,997.91
2023-11-13T12:03:13.054Z,997.92
2023-11-13T12:04:12.931Z,997.82
2023-11-13T12:05:12.872Z,997.80
2023-11-13T12:06:12.846Z,997.66
2023-11-13T12:07:12.990Z,997.66
2023-11-13T12:08:14.506Z,997.57